createdAt,value
2022-10-03T00:00:32.657Z,6.50
2022-10-03T00:05:05.169Z,6.40
2022-10-03T00:09:32.860Z,6.40
2022-10-03T00:14:04.664Z,6.40
2022-10-03T00:18:57.936Z,6.40
2022-10-03T00:23:14.826Z,6.30
2022-10-03T00:27:28.293Z,6.30
2022-10-03T00:31:58.943Z,6.20
2022-10-03T00:36:03.198Z,6.20
2022-10-03T00:40:13.537Z,6.20
2022-10-03T00:44:40.228Z,6.20
2022-10-03T00:49:15.102Z,6.10
2022-10-03T00:53:46.643Z,6.10
2022-10-03T00:58:06.111Z,6.10
2022-10-03T01:02:24.654Z,6.10
2022-10-03T01:06:37.420Z,6.00
2022-10-03T01:10:57.258Z,6.00
2022-10-03T01:15:19.848Z,6.00
2022-10-03T01:19:24.726Z,6.00
2022-10-03T01:24:09.565Z,5.90
2022-10-03T01:28:45.270Z,5.90
2022-10-03T01:33:30.150Z,5.90
2022-10-03T01:37:49.080Z,5.80
2022-10-03T01:42:01.365Z,5.70
2022-10-03T01:46:17.453Z,5.70
2022-10-03T01:50:37.013Z,5.70
2022-10-03T01:54:59.682Z,5.60
2022-10-03T01:59:07.429Z,5.70
2022-10-03T02:03:25.599Z,5.60
2022-10-03T02:07:48.269Z,5.60
2022-10-03T02:11:50.127Z,5.60
2022-10-03T02:16:29.609Z,5.60
2022-10-03T02:20:49.917Z,5.60
2022-10-03T02:25:10.506Z,5.60
2022-10-03T02:29:46.232Z,5.60
2022-10-03T02:34:23.031Z,5.60
2022-10-03T02:38:36.776Z,5.50
2022-10-03T02:42:51.372Z,5.50
2022-10-03T02:47:24.340Z,5.50
2022-10-03T02:51:38.360Z,5.50
2022-10-03T02:55:58.996Z,5.40
2022-10-03T03:00:11.639Z,5.40
2022-10-03T03:04:38.023Z,5.30
2022-10-03T03:09:25.796Z,5.30
2022-10-03T03:13:51.863Z,5.30
2022-10-03T03:18:15.256Z,5.30
2022-10-03T03:22:27.816Z,5.30
2022-10-03T03:26:51.210Z,5.40
2022-10-03T03:30:59.429Z,5.40
2022-10-03T03:35:33.814Z,5.40
2022-10-03T03:40:13.312Z,5.40
2022-10-03T03:44:54.198Z,5.50
2022-10-03T03:49:24.787Z,5.60
2022-10-03T03:54:03.866Z,5.80
2022-10-03T03:58:47.951Z,5.80
2022-10-03T04:03:14.407Z,5.90
2022-10-03T04:07:36.284Z,6.00
2022-10-03T04:11:53.731Z,6.10
2022-10-03T04:16:07.667Z,6.10
2022-10-03T04:20:31.271Z,6.10
2022-10-03T04:24:38.954Z,6.20
2022-10-03T04:29:11.916Z,6.30
2022-10-03T04:33:32.633Z,6.40
2022-10-03T04:37:44.270Z,6.40
2022-10-03T04:41:55.124Z,6.50
2022-10-03T04:46:14.729Z,6.60
2022-10-03T04:50:22.704Z,6.60
2022-10-03T04:54:35.099Z,6.70
2022-10-03T04:58:42.462Z,6.80
2022-10-03T05:03:22.293Z,6.80
2022-10-03T05:07:46.591Z,6.90
2022-10-03T05:11:54.936Z,6.90
2022-10-03T05:16:28.989Z,6.90
2022-10-03T05:20:51.624Z,7.00
2022-10-03T05:25:11.466Z,7.00
2022-10-03T05:29:26.262Z,7.10
2022-10-03T05:33:46.694Z,7.10
2022-10-03T05:38:10.477Z,7.00
2022-10-03T05:42:33.962Z,7.10
2022-10-03T05:46:59.498Z,7.10
2022-10-03T05:51:22.897Z,7.10
2022-10-03T05:55:58.015Z,7.20
2022-10-03T06:00:08.079Z,7.20
2022-10-03T06:04:31.028Z,7.30
2022-10-03T06:08:51.596Z,7.30
2022-10-03T06:13:24.174Z,7.40
2022-10-03T06:18:10.267Z,7.50
2022-10-03T06:22:33.178Z,7.60
2022-10-03T06:26:49.630Z,7.70
2022-10-03T06:31:11.279Z,7.80
2022-10-03T06:35:50.609Z,7.90
2022-10-03T06:40:10.078Z,8.10
2022-10-03T06:44:44.418Z,8.20
2022-10-03T06:49:29.560Z,8.40
2022-10-03T06:53:40.382Z,8.60
2022-10-03T06:58:04.572Z,8.70
2022-10-03T07:02:24.949Z,8.70
2022-10-03T07:06:54.657Z,8.90
2022-10-03T07:11:29.276Z,9.10
2022-10-03T07:16:21.089Z,9.30
2022-10-03T07:20:52.299Z,9.40
2022-10-03T07:25:28.446Z,9.70
2022-10-03T07:29:42.699Z,9.90
2022-10-03T07:34:15.242Z,10.00
2022-10-03T07:39:03.632Z,10.20
2022-10-03T07:43:38.257Z,10.40
2022-10-03T07:48:01.995Z,10.40
2022-10-03T07:52:12.345Z,10.60
2022-10-03T07:56:42.718Z,10.60
2022-10-03T08:01:09.408Z,10.80
2022-10-03T08:05:41.826Z,10.90
2022-10-03T08:10:05.041Z,11.00
2022-10-03T08:14:24.129Z,11.00
2022-10-03T08:18:52.057Z,11.20
2022-10-03T08:23:16.828Z,11.40
2022-10-03T08:27:32.639Z,11.50
2022-10-03T08:31:44.033Z,11.60
2022-10-03T08:36:34.958Z,11.60
2022-10-03T08:41:05.610Z,11.60
2022-10-03T08:45:40.078Z,11.70
2022-10-03T08:50:23.703Z,11.80
2022-10-03T08:54:47.188Z,12.00
2022-10-03T08:58:48.763Z,12.00
2022-10-03T09:03:31.821Z,12.00
2022-10-03T09:07:48.938Z,12.20
2022-10-03T09:12:12.648Z,12.30
2022-10-03T09:16:44.542Z,12.60
2022-10-03T09:21:12.055Z,12.70
2022-10-03T09:25:50.760Z,12.80
2022-10-03T09:30:11.070Z,13.00
2022-10-03T09:34:24.703Z,13.50
2022-10-03T09:38:49.624Z,14.40
2022-10-03T09:43:41.806Z,16.20
2022-10-03T09:47:49.508Z,17.60
2022-10-03T09:51:57.795Z,18.40
2022-10-03T09:56:47.589Z,19.00
2022-10-03T10:00:58.212Z,19.50
2022-10-03T10:05:12.360Z,19.60
2022-10-03T10:09:48.958Z,19.60
2022-10-03T10:14:18.610Z,19.30
2022-10-03T10:18:59.657Z,18.90
2022-10-03T10:23:18.318Z,18.40
2022-10-03T10:27:32.153Z,17.70
2022-10-03T10:32:07.670Z,16.40
2022-10-03T10:36:40.406Z,16.20
2022-10-03T10:41:28.841Z,15.50
2022-10-03T10:46:04.495Z,15.40
2022-10-03T10:50:24.964Z,15.60
2022-10-03T10:54:42.399Z,15.70
2022-10-03T10:59:21.519Z,15.70
2022-10-03T11:03:42.121Z,15.50
2022-10-03T11:08:16.309Z,15.60
2022-10-03T11:13:09.148Z,15.50
2022-10-03T11:17:51.322Z,15.50
2022-10-03T11:22:21.529Z,15.60
2022-10-03T11:27:00.190Z,15.50
2022-10-03T11:31:10.775Z,15.40
2022-10-03T11:35:30.872Z,15.40
2022-10-03T11:39:45.023Z,15.30
2022-10-03T11:44:04.825Z,15.40
2022-10-03T11:48:33.907Z,15.50
2022-10-03T11:52:56.630Z,15.70
2022-10-03T11:57:09.095Z,15.80
2022-10-03T12:01:51.483Z,15.80
2022-10-03T12:06:18.962Z,16.10
2022-10-03T12:10:57.702Z,16.30
2022-10-03T12:15:19.705Z,16.50
2022-10-03T12:19:53.263Z,16.60
2022-10-03T12:24:24.436Z,16.70
2022-10-03T12:28:42.075Z,16.80
2022-10-03T12:33:02.558Z,16.90
2022-10-03T12:37:42.318Z,16.80
2022-10-03T12:42:12.468Z,16.60
2022-10-03T12:47:03.243Z,16.40
2022-10-03T12:51:26.953Z,16.50
2022-10-03T12:55:33.679Z,16.40
2022-10-03T12:59:45.296Z,16.50
2022-10-03T13:04:19.005Z,16.60
2022-10-03T13:08:35.762Z,16.50
2022-10-03T13:12:49.168Z,16.60
2022-10-03T13:17:08.569Z,16.40
2022-10-03T13:21:45.798Z,16.40
2022-10-03T13:26:07.549Z,16.20
2022-10-03T13:30:20.961Z,16.10
2022-10-03T13:34:30.549Z,16.10
2022-10-03T13:38:51.228Z,16.00
2022-10-03T13:42:54.117Z,16.20
2022-10-03T13:47:11.158Z,16.30
2022-10-03T13:51:40.314Z,16.60
2022-10-03T13:55:42.228Z,16.70
2022-10-03T14:00:11.330Z,17.00
2022-10-03T14:04:50.815Z,17.40
2022-10-03T14:09:04.376Z,17.50
2022-10-03T14:13:43.419Z,17.60
2022-10-03T14:18:06.787Z,18.00
2022-10-03T14:22:30.050Z,18.20
2022-10-03T14:26:31.627Z,18.10
2022-10-03T14:31:08.602Z,17.80
2022-10-03T14:35:51.791Z,17.50
2022-10-03T14:40:15.717Z,17.00
2022-10-03T14:44:25.980Z,16.90
2022-10-03T14:48:37.393Z,16.70
2022-10-03T14:52:48.265Z,16.70
2022-10-03T14:56:51.806Z,16.70
2022-10-03T15:01:15.663Z,16.50
2022-10-03T15:05:36.069Z,16.50
2022-10-03T15:09:41.424Z,16.30
2022-10-03T15:13:54.906Z,16.20
2022-10-03T15:18:03.824Z,16.00
2022-10-03T15:22:22.194Z,15.80
2022-10-03T15:26:26.408Z,15.70
2022-10-03T15:30:32.348Z,15.60
2022-10-03T15:34:39.626Z,15.40
2022-10-03T15:38:42.833Z,15.40
2022-10-03T15:42:54.052Z,15.30
2022-10-03T15:47:16.924Z,15.20
2022-10-03T15:51:23.045Z,15.10
2022-10-03T15:55:38.100Z,15.10
2022-10-03T15:59:45.217Z,15.00
2022-10-03T16:04:02.587Z,14.90
2022-10-03T16:08:15.753Z,14.80
2022-10-03T16:12:37.838Z,14.80
2022-10-03T16:16:45.427Z,14.80
2022-10-03T16:20:55.700Z,14.70
2022-10-03T16:25:12.043Z,14.70
2022-10-03T16:29:23.848Z,14.60
2022-10-03T16:33:32.173Z,14.60
2022-10-03T16:37:40.077Z,14.40
2022-10-03T16:41:44.020Z,14.30
2022-10-03T16:45:47.102Z,14.20
2022-10-03T16:50:18.032Z,14.00
2022-10-03T16:54:20.898Z,13.90
2022-10-03T16:58:29.359Z,13.70
2022-10-03T17:02:31.994Z,13.60
2022-10-03T17:06:37.899Z,13.40
2022-10-03T17:10:40.719Z,13.30
2022-10-03T17:14:44.449Z,13.10
2022-10-03T17:19:08.294Z,12.90
2022-10-03T17:23:35.890Z,12.70
2022-10-03T17:27:40.312Z,12.60
2022-10-03T17:31:59.429Z,12.40
2022-10-03T17:36:49.660Z,12.20
2022-10-03T17:41:15.539Z,12.10
2022-10-03T17:46:10.000Z,11.90
2022-10-03T17:50:36.962Z,11.80
2022-10-03T17:54:40.468Z,11.70
2022-10-03T17:58:47.868Z,11.50
2022-10-03T18:03:01.910Z,11.40
2022-10-03T18:07:18.344Z,11.30
2022-10-03T18:11:24.223Z,11.20
2022-10-03T18:16:04.234Z,11.10
2022-10-03T18:20:27.788Z,11.00
2022-10-03T18:25:34.298Z,10.90
2022-10-03T18:29:42.685Z,10.80
2022-10-03T18:33:59.591Z,10.70
2022-10-03T18:38:07.005Z,10.70
2022-10-03T18:42:11.730Z,10.60
2022-10-03T18:46:30.073Z,10.60
2022-10-03T18:51:06.268Z,10.40
2022-10-03T18:55:19.289Z,10.40
2022-10-03T18:59:33.730Z,10.40
2022-10-03T19:03:53.405Z,10.30
2022-10-03T19:08:24.822Z,10.20
2022-10-03T19:12:33.544Z,10.20
2022-10-03T19:16:40.363Z,10.20
2022-10-03T19:20:45.774Z,10.10
2022-10-03T19:24:59.091Z,10.10
2022-10-03T19:29:05.757Z,10.10
2022-10-03T19:33:14.085Z,10.10
2022-10-03T19:37:45.253Z,10.10
2022-10-03T19:41:53.801Z,10.10
2022-10-03T19:46:17.333Z,10.10
2022-10-03T19:50:37.484Z,10.10
2022-10-03T19:54:54.379Z,10.10
2022-10-03T19:59:13.503Z,10.10
2022-10-03T20:03:46.755Z,10.00
2022-10-03T20:08:00.735Z,10.00
2022-10-03T20:12:11.242Z,9.90
2022-10-03T20:16:23.287Z,9.90
2022-10-03T20:20:25.952Z,9.80
2022-10-03T20:24:37.804Z,9.70
2022-10-03T20:28:55.721Z,9.70
2022-10-03T20:32:59.236Z,9.60
2022-10-03T20:37:29.712Z,9.50
2022-10-03T20:41:43.155Z,9.40
2022-10-03T20:45:51.085Z,9.40
2022-10-03T20:50:20.799Z,9.30
2022-10-03T20:54:25.735Z,9.20
2022-10-03T20:58:39.672Z,9.20
2022-10-03T21:03:05.824Z,9.10
2022-10-03T21:07:28.275Z,9.10
2022-10-03T21:11:33.056Z,9.00
2022-10-03T21:15:40.835Z,9.00
2022-10-03T21:20:07.340Z,8.90
2022-10-03T21:24:14.919Z,8.90
2022-10-03T21:28:26.971Z,8.90
2022-10-03T21:33:02.811Z,8.80
2022-10-03T21:37:23.011Z,8.70
2022-10-03T21:41:33.892Z,8.70
2022-10-03T21:45:47.513Z,8.70
2022-10-03T21:49:59.740Z,8.60
2022-10-03T21:54:30.074Z,8.70
2022-10-03T21:59:06.600Z,8.70
2022-10-03T22:03:22.135Z,8.70
2022-10-03T22:07:40.860Z,8.70
2022-10-03T22:11:54.964Z,8.80
2022-10-03T22:16:31.193Z,8.80
2022-10-03T22:20:34.453Z,8.80
2022-10-03T22:24:45.045Z,8.80
2022-10-03T22:29:22.972Z,8.80
2022-10-03T22:33:55.720Z,8.60
2022-10-03T22:37:57.986Z,8.60
2022-10-03T22:42:02.020Z,8.50
2022-10-03T22:46:05.155Z,8.50
2022-10-03T22:50:12.460Z,8.40
2022-10-03T22:54:15.722Z,8.40
2022-10-03T22:58:18.860Z,8.30
2022-10-03T23:02:34.310Z,8.30
2022-10-03T23:06:53.075Z,8.40
2022-10-03T23:11:24.320Z,8.40
2022-10-03T23:15:27.506Z,8.40
2022-10-03T23:19:37.991Z,8.40
2022-10-03T23:23:51.966Z,8.50
2022-10-03T23:28:24.752Z,8.50
2022-10-03T23:33:02.198Z,8.50
2022-10-03T23:37:13.139Z,8.60
2022-10-03T23:41:31.224Z,8.70
2022-10-03T23:45:35.210Z,8.80
2022-10-03T23:49:38.495Z,8.90
2022-10-03T23:53:44.379Z,8.90
2022-10-03T23:57:46.326Z,9.00
